createdAt,value
2023-02-07T00:01:35.381Z,103856.31
2023-02-07T00:04:05.010Z,103852.91
2023-02-07T00:06:36.348Z,103851.09
2023-02-07T00:09:07.926Z,103867.06
2023-02-07T00:11:40.917Z,103875.13
2023-02-07T00:14:11.681Z,103869.66
2023-02-07T00:16:41.680Z,103869.19
2023-02-07T00:19:11.444Z,103871.88
2023-02-07T00:21:40.963Z,103848.56
2023-02-07T00:24:10.569Z,103846.50
2023-02-07T00:26:43.241Z,103869.34
2023-02-07T00:29:16.475Z,103870.06
2023-02-07T00:31:45.975Z,103865.25
2023-02-07T00:34:15.793Z,103865.47
2023-02-07T00:36:45.543Z,103861.81
2023-02-07T00:39:16.304Z,103863.66
2023-02-07T00:41:48.645Z,103863.97
2023-02-07T00:44:18.047Z,103860.59
2023-02-07T00:46:47.545Z,103865.13
2023-02-07T00:49:17.197Z,103862.34
2023-02-07T00:51:46.649Z,103859.13
2023-02-07T00:54:16.108Z,103839.28
2023-02-07T00:56:48.168Z,103837.66
2023-02-07T00:59:17.590Z,103839.75
2023-02-07T01:01:47.027Z,103839.94
2023-02-07T01:04:16.469Z,103843.50
2023-02-07T01:06:45.868Z,103852.06
2023-02-07T01:09:15.560Z,103853.25
2023-02-07T01:11:44.986Z,103854.91
2023-02-07T01:14:17.004Z,103846.19
2023-02-07T01:16:46.545Z,103844.31
2023-02-07T01:19:16.244Z,103838.59
2023-02-07T01:21:45.709Z,103836.72
2023-02-07T01:24:15.167Z,103841.38
2023-02-07T01:26:44.610Z,103835.78
2023-02-07T01:29:19.407Z,103832.09
2023-02-07T01:31:48.851Z,103829.91
2023-02-07T01:34:18.550Z,103828.59
2023-02-07T01:36:48.415Z,103822.56
2023-02-07T01:39:17.813Z,103814.72
2023-02-07T01:41:47.268Z,103799.31
2023-02-07T01:44:46.569Z,103808.31
2023-02-07T01:47:21.016Z,103807.84
2023-02-07T01:49:51.178Z,103806.94
2023-02-07T01:52:29.948Z,103801.91
2023-02-07T01:55:04.280Z,103801.44
2023-02-07T01:57:33.774Z,103806.72
2023-02-07T02:00:03.503Z,103806.53
2023-02-07T02:02:38.122Z,103811.34
2023-02-07T02:05:08.389Z,103808.81
2023-02-07T02:07:38.462Z,103815.94
2023-02-07T02:10:10.090Z,103813.19
2023-02-07T02:13:08.585Z,103819.41
2023-02-07T02:15:41.547Z,103823.63
2023-02-07T02:18:25.946Z,103818.41
2023-02-07T02:21:21.187Z,103810.97
2023-02-07T02:24:04.502Z,103800.38
2023-02-07T02:26:58.681Z,103791.72
2023-02-07T02:29:57.036Z,103790.25
2023-02-07T02:32:56.340Z,103795.47
2023-02-07T02:35:33.946Z,103785.38
2023-02-07T02:38:08.776Z,103777.44
2023-02-07T02:40:46.196Z,103760.78
2023-02-07T02:43:19.891Z,103750.78
2023-02-07T02:45:53.773Z,103752.53
2023-02-07T02:48:23.642Z,103748.66
2023-02-07T02:50:56.539Z,103741.31
2023-02-07T02:53:26.381Z,103743.97
2023-02-07T02:56:13.810Z,103749.59
2023-02-07T02:58:54.926Z,103772.16
2023-02-07T03:01:27.429Z,103792.44
2023-02-07T03:04:12.092Z,103804.72
2023-02-07T03:06:56.921Z,103812.16
2023-02-07T03:09:32.165Z,103807.34
2023-02-07T03:12:06.022Z,103819.72
2023-02-07T03:14:44.660Z,103815.50
2023-02-07T03:17:18.263Z,103822.94
2023-02-07T03:19:50.063Z,103831.22
2023-02-07T03:22:24.915Z,103825.53
2023-02-07T03:24:56.652Z,103819.63
2023-02-07T03:27:26.670Z,103825.69
2023-02-07T03:29:59.083Z,103830.53
2023-02-07T03:32:31.105Z,103832.69
2023-02-07T03:35:02.866Z,103829.13
2023-02-07T03:37:39.363Z,103826.59
2023-02-07T03:40:10.524Z,103841.44
2023-02-07T03:42:43.355Z,103839.81
2023-02-07T03:45:15.434Z,103844.28
2023-02-07T03:47:44.890Z,103835.84
2023-02-07T03:50:14.594Z,103823.69
2023-02-07T03:52:46.642Z,103817.84
2023-02-07T03:55:16.224Z,103807.22
2023-02-07T03:57:45.619Z,103822.16
2023-02-07T04:00:16.463Z,103828.88
2023-02-07T04:02:46.280Z,103827.03
2023-02-07T04:05:15.738Z,103816.75
2023-02-07T04:07:48.082Z,103804.50
2023-02-07T04:10:17.636Z,103807.34
2023-02-07T04:12:47.260Z,103824.19
2023-02-07T04:15:16.786Z,103831.59
2023-02-07T04:17:46.218Z,103837.38
2023-02-07T04:20:15.864Z,103837.06
2023-02-07T04:22:47.911Z,103828.84
2023-02-07T04:25:17.380Z,103831.53
2023-02-07T04:27:46.804Z,103833.34
2023-02-07T04:30:16.599Z,103827.19
2023-02-07T04:32:46.310Z,103833.88
2023-02-07T04:35:15.704Z,103852.31
2023-02-07T04:37:47.731Z,103846.47
2023-02-07T04:40:17.782Z,103841.47
2023-02-07T04:42:47.234Z,103846.22
2023-02-07T04:45:16.872Z,103858.22
2023-02-07T04:47:46.273Z,103863.06
2023-02-07T04:50:15.698Z,103855.00
2023-02-07T04:52:47.664Z,103838.00
2023-02-07T04:55:17.151Z,103839.63
2023-02-07T04:57:46.582Z,103835.59
2023-02-07T05:00:17.842Z,103826.94
2023-02-07T05:02:47.389Z,103822.78
2023-02-07T05:05:17.095Z,103830.94
2023-02-07T05:07:49.129Z,103833.94
2023-02-07T05:10:18.676Z,103832.38
2023-02-07T05:12:48.156Z,103842.41
2023-02-07T05:15:17.667Z,103837.59
2023-02-07T05:17:47.882Z,103838.25
2023-02-07T05:20:17.374Z,103846.59
2023-02-07T05:22:49.500Z,103846.59
2023-02-07T05:25:19.430Z,103852.19
2023-02-07T05:27:48.918Z,103860.44
2023-02-07T05:30:18.412Z,103866.50
2023-02-07T05:33:00.859Z,103867.41
2023-02-07T05:35:30.299Z,103869.72
2023-02-07T05:38:02.377Z,103881.88
2023-02-07T05:40:32.293Z,103877.75
2023-02-07T05:43:01.763Z,103874.50
2023-02-07T05:45:31.368Z,103861.78
2023-02-07T05:48:01.014Z,103868.53
2023-02-07T05:50:31.024Z,103865.31
2023-02-07T05:53:03.086Z,103882.84
2023-02-07T05:55:32.588Z,103889.91
2023-02-07T05:58:02.144Z,103896.34
2023-02-07T06:00:32.052Z,103884.81
2023-02-07T06:03:01.560Z,103882.56
2023-02-07T06:05:32.112Z,103863.59
2023-02-07T06:08:04.204Z,103865.72
2023-02-07T06:10:33.637Z,103867.84
2023-02-07T06:13:03.204Z,103868.06
2023-02-07T06:15:32.670Z,103881.56
2023-02-07T06:18:02.124Z,103893.59
2023-02-07T06:20:31.568Z,103892.59
2023-02-07T06:23:01.234Z,103892.88
2023-02-07T06:25:33.318Z,103891.91
2023-02-07T06:28:02.824Z,103897.34
2023-02-07T06:30:32.657Z,103900.88
2023-02-07T06:33:02.203Z,103906.56
2023-02-07T06:35:31.597Z,103917.19
2023-02-07T06:38:01.354Z,103910.03
2023-02-07T06:40:33.472Z,103906.09
2023-02-07T06:43:02.971Z,103926.13
2023-02-07T06:45:32.429Z,103925.25
2023-02-07T06:48:01.891Z,103930.09
2023-02-07T06:50:31.436Z,103936.00
2023-02-07T06:53:02.187Z,103923.38
2023-02-07T06:55:36.176Z,103932.09
2023-02-07T06:58:05.812Z,103933.94
2023-02-07T07:00:35.607Z,103934.88
2023-02-07T07:03:05.212Z,103941.31
2023-02-07T07:05:35.731Z,103935.66
2023-02-07T07:08:05.303Z,103944.53
2023-02-07T07:10:37.803Z,103958.34
2023-02-07T07:13:07.350Z,103949.13
2023-02-07T07:15:37.394Z,103952.78
2023-02-07T07:18:07.274Z,103947.19
2023-02-07T07:20:36.878Z,103947.63
2023-02-07T07:23:06.361Z,103944.13
2023-02-07T07:25:38.692Z,103952.44
2023-02-07T07:28:08.438Z,103956.25
2023-02-07T07:30:37.950Z,103965.22
2023-02-07T07:33:07.625Z,103956.47
2023-02-07T07:35:37.305Z,103959.25
2023-02-07T07:38:07.089Z,103950.84
2023-02-07T07:40:39.771Z,103955.00
2023-02-07T07:43:09.397Z,103958.13
2023-02-07T07:45:38.896Z,103964.03
2023-02-07T07:48:08.620Z,103974.41
2023-02-07T07:50:38.368Z,103972.56
2023-02-07T07:53:07.983Z,103971.88
2023-02-07T07:55:40.077Z,103967.03
2023-02-07T07:58:10.428Z,103959.22
2023-02-07T08:00:40.462Z,103953.25
2023-02-07T08:03:11.167Z,103962.91
2023-02-07T08:05:41.113Z,103955.13
2023-02-07T08:08:10.630Z,103943.66
2023-02-07T08:10:43.157Z,103932.59
2023-02-07T08:13:12.997Z,103937.88
2023-02-07T08:15:42.658Z,103946.41
2023-02-07T08:18:12.481Z,103941.31
2023-02-07T08:20:41.923Z,103938.81
2023-02-07T08:23:11.792Z,103930.31
2023-02-07T08:25:44.214Z,103928.72
2023-02-07T08:28:13.691Z,103916.34
2023-02-07T08:30:43.209Z,103910.56
2023-02-07T08:33:12.653Z,103901.38
2023-02-07T08:35:42.680Z,103905.28
2023-02-07T08:38:12.111Z,103891.75
2023-02-07T08:40:44.133Z,103886.22
2023-02-07T08:43:14.339Z,103872.88
2023-02-07T08:45:44.777Z,103868.06
2023-02-07T08:48:14.228Z,103867.09
2023-02-07T08:50:43.965Z,103874.06
2023-02-07T08:53:13.851Z,103875.97
2023-02-07T08:55:46.564Z,103872.81
2023-02-07T08:58:16.043Z,103870.06
2023-02-07T09:00:45.819Z,103879.22
2023-02-07T09:03:15.331Z,103861.31
2023-02-07T09:05:44.825Z,103858.19
2023-02-07T09:08:14.282Z,103861.59
2023-02-07T09:10:47.576Z,103854.66
2023-02-07T09:13:17.177Z,103849.88
2023-02-07T09:15:46.618Z,103843.50
2023-02-07T09:18:16.053Z,103845.00
2023-02-07T09:20:46.817Z,103859.25
2023-02-07T09:23:22.214Z,103853.94
2023-02-07T09:25:55.210Z,103855.38
2023-02-07T09:28:25.070Z,103859.72
2023-02-07T09:30:54.951Z,103844.38
2023-02-07T09:33:25.534Z,103852.28
2023-02-07T09:35:55.564Z,103851.28
2023-02-07T09:38:26.434Z,103862.31
2023-02-07T09:40:59.336Z,103871.97
2023-02-07T09:43:38.606Z,103873.97
2023-02-07T09:46:13.259Z,103878.69
2023-02-07T09:48:48.490Z,103873.09
2023-02-07T09:51:23.675Z,103878.22
2023-02-07T09:53:56.136Z,103887.59
2023-02-07T09:56:30.475Z,103888.63
2023-02-07T09:59:05.156Z,103891.66
2023-02-07T10:01:37.472Z,103891.00
2023-02-07T10:04:18.223Z,103899.03
2023-02-07T10:06:50.466Z,103904.69
2023-02-07T10:09:21.453Z,103903.28
2023-02-07T10:11:56.152Z,103912.69
2023-02-07T10:14:38.415Z,103922.25
2023-02-07T10:17:32.198Z,103950.78
2023-02-07T10:20:09.123Z,103946.06
2023-02-07T10:22:43.767Z,103958.25
2023-02-07T10:25:22.897Z,103964.66
2023-02-07T10:28:02.558Z,103952.03
2023-02-07T10:30:33.681Z,103948.72
2023-02-07T10:33:07.946Z,103952.47
2023-02-07T10:35:39.562Z,103958.25
2023-02-07T10:38:19.135Z,103951.88
2023-02-07T10:40:54.600Z,103954.19
2023-02-07T10:43:30.506Z,103970.03
2023-02-07T10:46:06.354Z,103976.94
2023-02-07T10:48:36.781Z,103973.13
2023-02-07T10:51:07.594Z,103968.09
2023-02-07T10:53:56.575Z,103961.94
2023-02-07T10:56:29.865Z,103971.59
2023-02-07T10:59:02.604Z,103973.72
2023-02-07T11:01:33.647Z,103972.94
2023-02-07T11:04:03.091Z,103973.44
2023-02-07T11:06:34.022Z,103970.25
2023-02-07T11:09:23.845Z,103984.28
2023-02-07T11:11:53.951Z,103986.41
2023-02-07T11:14:29.132Z,103988.31
2023-02-07T11:17:00.280Z,103985.19
2023-02-07T11:19:31.144Z,103983.78
2023-02-07T11:22:13.740Z,103985.19
2023-02-07T11:24:43.282Z,103974.22
2023-02-07T11:27:16.492Z,103975.63
2023-02-07T11:29:52.565Z,103975.47
2023-02-07T11:32:23.667Z,103977.72
2023-02-07T11:34:57.585Z,103975.34
2023-02-07T11:37:32.462Z,103969.69
2023-02-07T11:40:26.249Z,103963.91
2023-02-07T11:43:01.386Z,103957.22
2023-02-07T11:45:34.799Z,103963.13
2023-02-07T11:48:05.240Z,103960.56
2023-02-07T11:50:39.500Z,103953.28
2023-02-07T11:53:09.400Z,103960.31
2023-02-07T11:55:41.578Z,103967.47
2023-02-07T11:58:14.016Z,103952.75
2023-02-07T12:00:46.243Z,103948.22
2023-02-07T12:03:24.287Z,103952.00
2023-02-07T12:05:55.804Z,103949.81
2023-02-07T12:08:26.994Z,103946.00
2023-02-07T12:10:59.001Z,103953.28
2023-02-07T12:13:31.696Z,103951.13
2023-02-07T12:16:06.311Z,103942.75
2023-02-07T12:18:38.326Z,103940.81
2023-02-07T12:21:15.063Z,103938.06
2023-02-07T12:23:48.259Z,103921.09
2023-02-07T12:26:22.962Z,103924.22
2023-02-07T12:29:12.293Z,103934.63
2023-02-07T12:31:50.718Z,103936.44
2023-02-07T12:34:23.945Z,103936.94
2023-02-07T12:36:58.135Z,103943.16
2023-02-07T12:39:33.394Z,103937.16
2023-02-07T12:42:10.982Z,103935.50
2023-02-07T12:44:43.452Z,103930.91
2023-02-07T12:47:21.679Z,103936.19
2023-02-07T12:50:02.155Z,103937.22
2023-02-07T12:52:40.053Z,103953.72
2023-02-07T12:55:20.668Z,103949.97
2023-02-07T12:58:02.896Z,103959.13
2023-02-07T13:00:35.949Z,103965.25
2023-02-07T13:03:19.340Z,103957.50
2023-02-07T13:06:02.442Z,103957.53
2023-02-07T13:08:39.982Z,103971.78
2023-02-07T13:11:17.488Z,103979.47
2023-02-07T13:13:55.213Z,103986.44
2023-02-07T13:16:29.375Z,103986.03
2023-02-07T13:19:06.290Z,104004.41
2023-02-07T13:21:42.509Z,104017.78
2023-02-07T13:24:17.001Z,104021.06
2023-02-07T13:26:51.992Z,104026.22
2023-02-07T13:29:22.214Z,104017.84
2023-02-07T13:31:54.257Z,104024.91
2023-02-07T13:34:27.940Z,104022.50
2023-02-07T13:37:00.741Z,104031.00
2023-02-07T13:39:42.286Z,104026.09
2023-02-07T13:42:22.713Z,104027.03
2023-02-07T13:44:58.546Z,104024.06
2023-02-07T13:47:50.892Z,104018.34
2023-02-07T13:50:31.306Z,104015.56
2023-02-07T13:53:06.017Z,104018.34
2023-02-07T13:55:38.068Z,104016.81
2023-02-07T13:58:20.773Z,104006.09
2023-02-07T14:01:11.676Z,103991.94
2023-02-07T14:03:41.425Z,103981.81
2023-02-07T14:06:25.825Z,103968.06
2023-02-07T14:09:04.509Z,103937.31
2023-02-07T14:11:39.475Z,103925.50
2023-02-07T14:14:16.732Z,103893.25
2023-02-07T14:16:49.905Z,103879.50
2023-02-07T14:19:53.034Z,103885.88
2023-02-07T14:22:30.172Z,103890.25
2023-02-07T14:25:32.435Z,103908.63
2023-02-07T14:28:36.300Z,103914.09
2023-02-07T14:31:23.641Z,103922.03
2023-02-07T14:34:17.825Z,103938.84
2023-02-07T14:36:47.693Z,103935.56
2023-02-07T14:39:31.880Z,103927.81
2023-02-07T14:42:13.904Z,103930.63
2023-02-07T14:44:44.846Z,103937.44
2023-02-07T14:47:23.187Z,103929.59
2023-02-07T14:49:55.116Z,103938.41
2023-02-07T14:52:30.154Z,103926.47
2023-02-07T14:55:04.499Z,103940.22
2023-02-07T14:57:40.723Z,103930.44
2023-02-07T15:00:28.760Z,103930.53
2023-02-07T15:03:02.821Z,103937.06
2023-02-07T15:05:36.581Z,103937.63
2023-02-07T15:08:16.363Z,103944.63
2023-02-07T15:10:56.775Z,103951.22
2023-02-07T15:13:29.898Z,103945.00
2023-02-07T15:16:01.718Z,103938.50
2023-02-07T15:18:33.900Z,103941.56
2023-02-07T15:21:03.826Z,103941.66
2023-02-07T15:23:34.310Z,103940.94
2023-02-07T15:26:09.266Z,103944.84
2023-02-07T15:28:38.960Z,103952.31
2023-02-07T15:31:15.032Z,103954.09
2023-02-07T15:33:54.107Z,103947.44
2023-02-07T15:36:36.013Z,103940.63
2023-02-07T15:39:08.359Z,103943.31
2023-02-07T15:41:40.352Z,103934.28
2023-02-07T15:44:21.131Z,103933.31
2023-02-07T15:46:52.960Z,103927.88
2023-02-07T15:49:33.522Z,103923.84
2023-02-07T15:52:09.877Z,103924.84
2023-02-07T15:54:42.092Z,103935.19
2023-02-07T15:57:20.074Z,103936.13
2023-02-07T15:59:52.284Z,103941.09
2023-02-07T16:02:28.034Z,103950.28
2023-02-07T16:04:57.503Z,103941.91
2023-02-07T16:07:27.682Z,103945.25
2023-02-07T16:09:57.363Z,103948.25
2023-02-07T16:12:49.917Z,103949.78
2023-02-07T16:15:28.369Z,103937.84
2023-02-07T16:17:58.567Z,103945.84
2023-02-07T16:20:28.456Z,103949.16
2023-02-07T16:22:59.336Z,103947.72
2023-02-07T16:25:31.337Z,103933.06
2023-02-07T16:28:04.483Z,103936.13
2023-02-07T16:30:37.290Z,103943.75
2023-02-07T16:33:07.581Z,103946.00
2023-02-07T16:35:37.165Z,103951.09
2023-02-07T16:38:09.155Z,103951.28
2023-02-07T16:40:39.013Z,103948.22
2023-02-07T16:43:11.418Z,103945.59
2023-02-07T16:45:40.896Z,103949.94
2023-02-07T16:48:16.597Z,103952.72
2023-02-07T16:50:46.431Z,103953.81
2023-02-07T16:53:16.141Z,103958.63
2023-02-07T16:55:45.618Z,103956.66
2023-02-07T16:58:24.361Z,103960.41
2023-02-07T17:00:53.896Z,103961.97
2023-02-07T17:03:24.216Z,103957.31
2023-02-07T17:05:53.671Z,103964.50
2023-02-07T17:08:27.194Z,103962.50
2023-02-07T17:11:00.952Z,103961.56
2023-02-07T17:13:32.937Z,103959.53
2023-02-07T17:16:02.353Z,103959.25
2023-02-07T17:18:31.791Z,103955.50
2023-02-07T17:21:01.249Z,103951.25
2023-02-07T17:23:31.050Z,103950.63
2023-02-07T17:26:00.722Z,103954.28
2023-02-07T17:28:32.843Z,103947.00
2023-02-07T17:31:02.297Z,103951.25
2023-02-07T17:33:31.806Z,103950.00
2023-02-07T17:36:01.185Z,103953.41
2023-02-07T17:38:30.567Z,103950.34
2023-02-07T17:40:59.988Z,103941.06
2023-02-07T17:43:29.414Z,103935.78
2023-02-07T17:46:01.401Z,103937.81
2023-02-07T17:48:32.618Z,103937.25
2023-02-07T17:51:02.080Z,103931.69
2023-02-07T17:53:31.522Z,103936.00
2023-02-07T17:56:00.980Z,103944.03
2023-02-07T17:58:30.347Z,103939.44
2023-02-07T18:01:02.661Z,103933.47
2023-02-07T18:03:32.040Z,103938.97
2023-02-07T18:06:01.621Z,103938.19
2023-02-07T18:08:31.014Z,103937.75
2023-02-07T18:11:04.350Z,103930.69
2023-02-07T18:13:33.787Z,103935.28
2023-02-07T18:16:06.195Z,103932.13
2023-02-07T18:18:35.659Z,103931.75
2023-02-07T18:21:06.008Z,103934.63
2023-02-07T18:23:35.666Z,103934.16
2023-02-07T18:26:05.487Z,103947.16
2023-02-07T18:28:35.254Z,103943.41
2023-02-07T18:31:11.427Z,103940.66
2023-02-07T18:33:40.977Z,103944.06
2023-02-07T18:36:11.470Z,103935.75
2023-02-07T18:38:40.934Z,103942.00
2023-02-07T18:41:11.184Z,103937.59
2023-02-07T18:43:41.216Z,103926.53
2023-02-07T18:46:14.962Z,103928.47
2023-02-07T18:48:44.967Z,103933.75
2023-02-07T18:51:16.108Z,103926.38
2023-02-07T18:53:45.881Z,103933.38
2023-02-07T18:56:17.219Z,103937.47
2023-02-07T18:58:48.185Z,103943.03
2023-02-07T19:01:22.127Z,103942.66
2023-02-07T19:03:54.461Z,103935.28
2023-02-07T19:06:24.774Z,103931.81
2023-02-07T19:08:54.697Z,103933.69
2023-02-07T19:11:24.146Z,103935.84
2023-02-07T19:13:54.930Z,103938.22
2023-02-07T19:16:27.411Z,103938.22
2023-02-07T19:19:01.919Z,103938.63
2023-02-07T19:21:31.428Z,103931.75
2023-02-07T19:24:00.884Z,103931.00
2023-02-07T19:26:30.339Z,103924.59
2023-02-07T19:29:00.669Z,103919.56
2023-02-07T19:31:32.790Z,103912.88
2023-02-07T19:34:02.479Z,103917.00
2023-02-07T19:36:32.425Z,103910.97
2023-02-07T19:39:01.842Z,103919.38
2023-02-07T19:41:32.017Z,103914.31
2023-02-07T19:44:01.512Z,103914.63
2023-02-07T19:46:33.630Z,103913.44
2023-02-07T19:49:03.102Z,103914.38
2023-02-07T19:51:32.830Z,103918.28
2023-02-07T19:54:03.066Z,103911.16
2023-02-07T19:56:34.915Z,103906.09
2023-02-07T19:59:06.075Z,103909.75
2023-02-07T20:01:39.387Z,103911.16
2023-02-07T20:04:08.944Z,103902.84
2023-02-07T20:06:38.337Z,103910.50
2023-02-07T20:09:09.589Z,103917.00
2023-02-07T20:11:39.010Z,103901.38
2023-02-07T20:14:08.396Z,103909.25
2023-02-07T20:16:41.311Z,103906.72
2023-02-07T20:19:10.843Z,103905.31
2023-02-07T20:21:40.537Z,103904.88
2023-02-07T20:24:10.691Z,103908.78
2023-02-07T20:26:42.644Z,103905.84
2023-02-07T20:29:16.471Z,103909.31
2023-02-07T20:31:49.640Z,103905.06
2023-02-07T20:34:19.680Z,103892.94
2023-02-07T20:36:49.192Z,103892.66
2023-02-07T20:39:20.920Z,103895.97
2023-02-07T20:41:51.198Z,103889.78
2023-02-07T20:44:22.207Z,103901.81
2023-02-07T20:46:54.333Z,103903.06
2023-02-07T20:49:27.231Z,103905.59
2023-02-07T20:51:57.860Z,103896.59
2023-02-07T20:54:29.530Z,103887.03
2023-02-07T20:57:00.227Z,103892.88
2023-02-07T20:59:32.715Z,103899.38
2023-02-07T21:02:04.916Z,103905.38
2023-02-07T21:04:34.852Z,103908.19
2023-02-07T21:07:04.327Z,103904.97
2023-02-07T21:09:34.135Z,103904.81
2023-02-07T21:12:03.898Z,103904.06
2023-02-07T21:14:34.751Z,103904.06
2023-02-07T21:17:08.868Z,103906.72
2023-02-07T21:19:39.925Z,103905.06
2023-02-07T21:22:10.308Z,103902.22
2023-02-07T21:24:39.723Z,103906.88
2023-02-07T21:27:09.158Z,103911.53
2023-02-07T21:29:38.959Z,103922.84
2023-02-07T21:32:10.934Z,103913.91
2023-02-07T21:34:40.343Z,103919.97
2023-02-07T21:37:09.720Z,103921.16
2023-02-07T21:39:39.160Z,103923.22
2023-02-07T21:42:08.835Z,103916.56
2023-02-07T21:44:41.062Z,103912.38
2023-02-07T21:47:13.017Z,103915.16
2023-02-07T21:49:43.140Z,103917.44
2023-02-07T21:52:13.148Z,103911.03
2023-02-07T21:54:42.729Z,103909.91
2023-02-07T21:57:12.156Z,103914.97
2023-02-07T21:59:42.568Z,103907.19
2023-02-07T22:02:16.475Z,103904.22
2023-02-07T22:04:45.903Z,103910.78
2023-02-07T22:07:15.268Z,103911.50
2023-02-07T22:09:44.832Z,103912.84
2023-02-07T22:12:14.259Z,103916.38
2023-02-07T22:14:43.781Z,103909.84
2023-02-07T22:17:15.775Z,103916.09
2023-02-07T22:19:45.316Z,103916.09
2023-02-07T22:25:45.788Z,103925.03
2023-02-07T22:28:15.796Z,103920.16
2023-02-07T22:30:45.655Z,103932.56
2023-02-07T22:33:15.357Z,103930.06
2023-02-07T22:35:46.122Z,103926.47
2023-02-07T22:38:16.140Z,103928.00
2023-02-07T22:40:48.161Z,103932.44
2023-02-07T22:43:18.997Z,103930.13
2023-02-07T22:45:48.576Z,103918.16
2023-02-07T22:48:18.845Z,103926.66
2023-02-07T22:50:48.283Z,103926.41
2023-02-07T22:53:17.733Z,103926.16
2023-02-07T22:55:49.752Z,103926.19
2023-02-07T22:58:19.123Z,103923.94
2023-02-07T23:00:48.500Z,103918.97
2023-02-07T23:03:17.897Z,103906.63
2023-02-07T23:05:47.338Z,103896.81
2023-02-07T23:08:16.752Z,103886.16
2023-02-07T23:10:49.084Z,103901.72
2023-02-07T23:13:19.696Z,103901.50
2023-02-07T23:15:49.445Z,103909.53
2023-02-07T23:18:18.975Z,103919.91
2023-02-07T23:20:48.728Z,103919.84
2023-02-07T23:23:18.193Z,103927.75
2023-02-07T23:25:50.165Z,103915.00
2023-02-07T23:28:19.732Z,103925.53
2023-02-07T23:30:49.222Z,103900.00
2023-02-07T23:33:18.709Z,103891.56
2023-02-07T23:35:48.125Z,103887.38
2023-02-07T23:38:17.522Z,103906.41
2023-02-07T23:40:47.023Z,103926.63
2023-02-07T23:43:19.673Z,103935.44
2023-02-07T23:45:49.145Z,103951.28
2023-02-07T23:48:18.601Z,103978.56
2023-02-07T23:50:48.162Z,103990.00
2023-02-07T23:53:17.544Z,103986.78
2023-02-07T23:55:46.957Z,103997.59
2023-02-07T23:58:19.189Z,103998.47
